This is the latest recevied weather packets stored in our database for station/object HARMALA. If no packets are shown the sender has not sent any weather packets the latest 10 day(s).
| Time | Temp. | Humidity | Pressure | Rain* | Wind** | Luminosity | Snow |
|---|---|---|---|---|---|---|---|
| 1777667222 | 8.33° C | 66% | 1014.3 hPa | 0 mm | - | - | - |
| 1777666021 | 8.89° C | 61% | 1014.4 hPa | 0 mm | - | - | - |
| 1777664821 | 9.44° C | 60% | 1014.5 hPa | 0 mm | - | - | - |
| 1777663621 | 10.56° C | 56% | 1014.6 hPa | 0 mm | - | - | - |
| 1777662422 | 12.78° C | 50% | 1014.6 hPa | 0 mm | - | - | - |
| 1777661222 | 14.44° C | 43% | 1014.6 hPa | 0 mm | - | - | - |
| 1777660021 | 15.56° C | 43% | 1014.6 hPa | 0 mm | - | - | - |
| 1777658821 | 16.67° C | 38% | 1014.5 hPa | 0 mm | - | - | - |
| 1777657621 | 17.22° C | 33% | 1014.4 hPa | 0 mm | - | - | - |
| 1777656421 | 18.33° C | 28% | 1014.4 hPa | 0 mm | - | - | - |
| 1777655222 | 18.89° C | 28% | 1014.5 hPa | 0 mm | - | - | - |
| 1777654021 | 18.89° C | 29% | 1014.6 hPa | 0 mm | - | - | - |
| 1777652821 | 19.44° C | 28% | 1014.8 hPa | 0 mm | - | - | - |
| 1777651621 | 20° C | 27% | 1015 hPa | 0 mm | - | - | - |
| 1777650421 | 20° C | 27% | 1015 hPa | 0 mm | - | - | - |
| 1777649220 | 20° C | 27% | 1015.3 hPa | 0 mm | - | - | - |
| 1777648020 | 20° C | 28% | 1015.6 hPa | 0 mm | - | - | - |
| 1777646820 | 19.44° C | 28% | 1015.8 hPa | 0 mm | - | - | - |
| 1777645621 | 19.44° C | 29% | 1016 hPa | 0 mm | - | - | - |
| 1777644420 | 19.44° C | 29% | 1016.3 hPa | 0 mm | - | - | - |
| 1777643220 | 20° C | 29% | 1016.4 hPa | 0 mm | - | - | - |
| 1777642021 | 19.44° C | 30% | 1016.7 hPa | 0 mm | - | - | - |
| 1777640820 | 19.44° C | 31% | 1017 hPa | 0 mm | - | - | - |
| 1777639620 | 19.44° C | 29% | 1017.2 hPa | 0 mm | - | - | - |
| 1777638420 | 18.89° C | 29% | 1017.4 hPa | 0 mm | - | - | - |
* Rain latest hour (hover to see other rain measurements)
** Current wind speed in m/s (hover to see current wind gust speed)